Time;durP1;ratioP1;P1;durP2;ratioP2;P2;SDS_P1;SDS_P2;PMS_P1;PMS_P2;Temp;Humidity;BMP_temperature;BMP_pressure;BME280_temperature;BME280_humidity;BME280_pressure;Samples;Min_cycle;Max_cycle;Signal;HPM_P1;HPM_P2
2022/05/26 00:01:25;;;;;;;0.93;0.90;;;21.70;51.20;;;;;;4995424;28;20187;-92
2022/05/26 00:04:48;;;;;;;;;;;;;;;;;;;;;
2022/05/26 00:07:36;;;;;;;1.57;0.90;;;21.60;51.20;;;;;;5014791;28;20179;-91
2022/05/26 00:10:02;;;;;;;1.50;0.90;;;21.60;51.20;;;;;;5055207;28;20191;-91
2022/05/26 00:12:28;;;;;;;1.97;0.90;;;21.60;51.20;;;;;;5058189;28;20176;-93
2022/05/26 00:14:53;;;;;;;1.13;1.00;;;21.60;51.30;;;;;;5056538;28;20203;-91
2022/05/26 00:17:32;;;;;;;0.80;0.80;;;21.60;51.30;;;;;;5050402;28;20176;-91
2022/05/26 00:19:58;;;;;;;1.00;0.90;;;21.60;51.30;;;;;;5048003;28;20173;-92
2022/05/26 00:22:24;;;;;;;1.00;0.90;;;21.60;51.30;;;;;;5046096;28;20233;-91
2022/05/26 00:24:51;;;;;;;1.20;1.00;;;21.60;51.40;;;;;;5041648;28;20177;-91
2022/05/26 00:27:17;;;;;;;0.90;0.73;;;21.50;51.30;;;;;;5049765;28;20219;-91
2022/05/26 00:29:42;;;;;;;2.10;1.03;;;21.50;51.40;;;;;;5056516;28;20610;-91
2022/05/26 00:32:09;;;;;;;1.23;0.87;;;21.50;51.40;;;;;;5033706;28;20240;-92
2022/05/26 00:34:35;;;;;;;0.90;0.90;;;21.50;51.40;;;;;;5058461;28;20245;-91
2022/05/26 00:37:09;;;;;;;0.80;0.80;;;21.50;51.40;;;;;;5039812;28;20176;-92
2022/05/26 00:43:18;;;;;;;0.80;0.80;;;21.50;51.50;;;;;;5049658;28;20202;-91
2022/05/26 00:45:58;;;;;;;0.80;0.80;;;21.50;51.50;;;;;;5037868;28;20205;-92
2022/05/26 00:48:32;;;;;;;0.83;0.80;;;21.50;51.50;;;;;;5035445;28;20182;-91
2022/05/26 00:51:25;;;;;;;1.10;1.00;;;21.50;51.50;;;;;;5034667;28;20179;-91
2022/05/26 00:54:02;;;;;;;0.70;0.70;;;21.50;51.60;;;;;;5040939;28;20418;-91
2022/05/26 00:56:38;;;;;;;0.80;0.80;;;21.50;52.00;;;;;;5049276;28;20240;-92
2022/05/26 00:59:42;;;;;;;1.23;0.90;;;21.50;51.60;;;;;;5045287;28;20662;-91
2022/05/26 01:02:10;;;;;;;1.73;0.80;;;21.50;51.60;;;;;;5046793;28;20175;-91
2022/05/26 01:04:42;;;;;;;1.10;0.90;;;21.50;51.60;;;;;;5020001;28;20443;-91
2022/05/26 01:07:19;;;;;;;0.80;0.80;;;21.50;51.70;;;;;;5034278;28;20431;-92
2022/05/26 01:09:46;;;;;;;1.37;0.93;;;21.50;51.70;;;;;;5017184;28;20182;-91
2022/05/26 01:12:14;;;;;;;1.50;1.17;;;21.40;51.70;;;;;;5056605;28;20165;-91
2022/05/26 01:14:48;;;;;;;0.70;0.70;;;21.50;51.80;;;;;;5045017;28;20359;-92
2022/05/26 01:17:36;;;;;;;1.43;0.90;;;21.40;51.70;;;;;;5031799;28;20359;-92
2022/05/26 01:20:24;;;;;;;1.33;0.90;;;21.50;51.80;;;;;;5034757;28;20587;-92
2022/05/26 01:23:11;;;;;;;0.70;0.70;;;21.50;51.80;;;;;;5044407;28;20172;-92
2022/05/26 01:26:09;;;;;;;1.03;0.90;;;21.40;51.80;;;;;;5033790;28;20706;-92
2022/05/26 01:29:05;;;;;;;1.13;0.83;;;21.40;51.90;;;;;;5056387;28;20236;-93
2022/05/26 01:32:32;;;;;;;0.80;0.80;;;21.40;51.80;;;;;;5042542;28;20185;-92
2022/05/26 01:35:15;;;;;;;1.60;0.87;;;21.40;51.90;;;;;;4995580;28;20277;-92
2022/05/26 01:38:05;;;;;;;1.23;0.90;;;21.40;51.90;;;;;;4993804;28;20244;-92
2022/05/26 01:40:37;;;;;;;1.50;0.80;;;21.40;52.00;;;;;;5044465;28;20269;-92
2022/05/26 01:43:14;;;;;;;1.00;0.93;;;21.40;52.10;;;;;;5013277;28;20200;-92
2022/05/26 01:46:12;;;;;;;1.37;1.10;;;21.40;52.00;;;;;;5033200;28;20189;-91
2022/05/26 01:49:13;;;;;;;0.90;0.80;;;21.40;52.10;;;;;;5041371;28;20168;-91
2022/05/26 01:52:09;;;;;;;0.73;0.73;;;21.40;52.10;;;;;;5020558;28;20438;-92
2022/05/26 01:55:14;;;;;;;0.70;0.70;;;21.40;52.10;;;;;;5058852;28;20264;-92
2022/05/26 01:57:52;;;;;;;0.67;0.67;;;21.40;52.20;;;;;;5000560;28;20308;-92
2022/05/26 02:00:20;;;;;;;1.43;0.80;;;21.40;52.20;;;;;;5048469;28;20178;-93
2022/05/26 02:03:11;;;;;;;1.70;0.80;;;21.40;52.30;;;;;;5033292;28;20167;-91
2022/05/26 02:06:08;;;;;;;0.77;0.77;;;21.30;52.20;;;;;;5027034;28;20215;-92
2022/05/26 02:08:48;;;;;;;0.70;0.70;;;21.40;52.30;;;;;;5041066;28;20172;-91
2022/05/26 02:14:42;;;;;;;0.90;0.80;;;21.30;52.30;;;;;;5073391;28;20222;-91
2022/05/26 02:17:32;;;;;;;1.33;0.90;;;21.30;52.30;;;;;;5046595;28;20168;-92
2022/05/26 02:23:36;;;;;;;0.80;0.73;;;21.30;52.40;;;;;;5062637;28;20329;-92
2022/05/26 02:26:07;;;;;;;0.80;0.80;;;21.30;52.40;;;;;;5053376;28;20180;-92
2022/05/26 02:31:23;;;;;;;1.27;0.77;;;21.30;52.50;;;;;;5053525;28;20232;-91
2022/05/26 02:33:51;;;;;;;0.77;0.70;;;21.30;52.50;;;;;;5054591;28;20411;-92
2022/05/26 02:36:17;;;;;;;0.80;0.80;;;21.30;52.50;;;;;;5044352;28;20181;-93
2022/05/26 02:38:52;;;;;;;0.73;0.70;;;21.30;52.50;;;;;;5035996;28;20215;-92
2022/05/26 02:41:18;;;;;;;0.70;0.70;;;21.30;52.50;;;;;;5050798;28;20176;-93
2022/05/26 02:43:44;;;;;;;1.73;0.63;;;21.30;52.60;;;;;;5062219;28;20246;-92
2022/05/26 02:46:42;;;;;;;0.67;0.67;;;21.30;52.60;;;;;;5042733;28;20597;-93
2022/05/26 02:49:14;;;;;;;1.60;0.70;;;21.30;52.60;;;;;;5043159;28;20160;-92
2022/05/26 02:52:08;;;;;;;0.87;0.80;;;21.30;52.70;;;;;;5043308;28;20492;-92
2022/05/26 02:55:04;;;;;;;;;;;;;;;;;;;;;
2022/05/26 02:58:14;;;;;;;1.00;0.77;;;21.30;52.70;;;;;;5074555;28;20464;-93
2022/05/26 03:01:12;;;;;;;0.63;0.60;;;21.20;52.70;;;;;;5055958;28;20196;-93
2022/05/26 03:04:03;;;;;;;2.87;0.80;;;21.20;52.80;;;;;;5056123;28;20213;-92
2022/05/26 03:06:42;;;;;;;0.93;0.60;;;21.20;52.80;;;;;;5055558;28;20271;-92
2022/05/26 03:09:08;;;;;;;0.60;0.60;;;21.20;52.80;;;;;;5066089;28;20178;-92
2022/05/26 03:12:14;;;;;;;0.80;0.73;;;21.20;52.80;;;;;;5043505;28;20201;-92
2022/05/26 03:21:17;;;;;;;1.33;0.73;;;21.20;52.90;;;;;;5042061;28;20210;-92
2022/05/26 03:23:43;;;;;;;0.93;0.70;;;21.20;52.90;;;;;;5043560;28;20210;-91
2022/05/26 03:26:10;;;;;;;1.93;0.80;;;21.20;52.90;;;;;;5032353;28;20265;-92
2022/05/26 03:28:36;;;;;;;0.83;0.70;;;21.20;53.40;;;;;;5049788;28;20177;-91
2022/05/26 03:31:06;;;;;;;0.73;0.73;;;21.20;53.00;;;;;;5049579;28;20188;-92
2022/05/26 03:40:46;;;;;;;1.23;0.90;;;21.10;53.00;;;;;;5047227;28;20273;-92
2022/05/26 03:42:23;;;;;;;0.63;0.63;;;21.10;53.10;;;;;;5077184;28;20178;-92
2022/05/26 03:44:52;;;;;;;0.70;0.70;;;21.10;53.10;;;;;;5033585;28;20259;-92
2022/05/26 03:54:18;;;;;;;0.70;0.70;;;21.10;53.20;;;;;;5076803;28;20290;-91
2022/05/26 03:56:53;;;;;;;0.80;0.80;;;21.20;53.20;;;;;;5046215;28;20181;-92
2022/05/26 03:59:19;;;;;;;0.60;0.60;;;21.20;53.20;;;;;;5060162;28;20229;-92
2022/05/26 04:01:46;;;;;;;0.70;0.60;;;21.20;53.30;;;;;;5057841;28;20179;-93
2022/05/26 04:07:37;;;;;;;0.70;0.70;;;21.10;53.20;;;;;;5070361;28;20175;-92
2022/05/26 04:13:34;;;;;;;1.13;0.80;;;21.10;53.30;;;;;;5083821;28;20218;-93
2022/05/26 04:16:12;;;;;;;0.80;0.80;;;21.10;53.30;;;;;;5081834;28;20177;-93
2022/05/26 04:18:38;;;;;;;1.10;0.70;;;21.10;53.30;;;;;;5074636;28;20239;-92
2022/05/26 04:21:07;;;;;;;0.63;0.60;;;21.10;53.40;;;;;;5076466;28;20178;-93
2022/05/26 04:23:46;;;;;;;2.10;0.80;;;21.10;53.40;;;;;;5080156;28;20163;-93
2022/05/26 04:26:12;;;;;;;0.87;0.70;;;21.10;53.40;;;;;;5080651;28;20177;-93
2022/05/26 04:28:38;;;;;;;0.87;0.70;;;21.10;53.40;;;;;;5082300;28;20188;-93
2022/05/26 04:31:04;;;;;;;0.60;0.60;;;21.10;53.40;;;;;;5077055;28;20160;-93
2022/05/26 04:33:39;;;;;;;0.70;0.70;;;21.10;53.50;;;;;;5081734;28;20168;-93
2022/05/26 04:36:14;;;;;;;1.73;0.60;;;21.10;53.50;;;;;;5082127;28;20175;-94
2022/05/26 04:45:49;;;;;;;0.93;0.77;;;21.00;53.50;;;;;;5101869;28;20211;-93
2022/05/26 04:48:16;;;;;;;0.90;0.70;;;21.00;53.50;;;;;;5084566;28;20190;-94
2022/05/26 04:50:42;;;;;;;0.70;0.70;;;21.00;53.50;;;;;;5083722;28;20161;-94
2022/05/26 04:53:09;;;;;;;0.60;0.60;;;21.10;53.60;;;;;;5079094;28;20199;-93
2022/05/26 04:56:06;;;;;;;0.70;0.70;;;21.00;53.60;;;;;;5080415;28;20220;-93
2022/05/26 04:58:32;;;;;;;1.00;0.80;;;21.00;53.60;;;;;;5082701;28;20196;-93
2022/05/26 05:00:58;;;;;;;0.70;0.70;;;21.00;53.60;;;;;;5080732;28;20179;-93
2022/05/26 05:03:24;;;;;;;1.13;0.60;;;21.00;53.60;;;;;;5081596;28;20192;-94
2022/05/26 05:05:50;;;;;;;0.93;0.80;;;21.00;53.60;;;;;;5082170;28;20167;-95
2022/05/26 05:08:18;;;;;;;0.60;0.60;;;21.00;53.60;;;;;;5078470;28;20175;-94
2022/05/26 05:10:44;;;;;;;0.70;0.70;;;21.00;53.60;;;;;;5081737;28;20173;-94
2022/05/26 05:13:15;;;;;;;0.60;0.60;;;21.00;53.60;;;;;;5082950;28;20184;-93
2022/05/26 05:15:55;;;;;;;0.70;0.70;;;21.00;53.60;;;;;;5078893;28;20252;-93
2022/05/26 05:18:30;;;;;;;0.60;0.60;;;21.00;54.10;;;;;;5082167;28;20216;-93
2022/05/26 05:21:24;;;;;;;0.67;0.67;;;21.00;53.70;;;;;;5079802;28;20242;-94
2022/05/26 05:23:59;;;;;;;0.70;0.70;;;21.00;53.70;;;;;;5041315;28;20543;-93
2022/05/26 05:29:49;;;;;;;0.60;0.60;;;21.00;53.70;;;;;;5065628;28;20217;-93
2022/05/26 05:32:23;;;;;;;0.67;0.67;;;21.00;53.70;;;;;;5022440;28;20370;-94
2022/05/26 05:35:13;;;;;;;0.70;0.70;;;21.00;53.70;;;;;;5007485;28;20699;-93
2022/05/26 05:37:40;;;;;;;0.83;0.80;;;21.00;53.80;;;;;;5046399;28;20180;-93
2022/05/26 05:40:07;;;;;;;0.80;0.70;;;21.00;53.70;;;;;;5052289;28;20168;-93
2022/05/26 05:42:33;;;;;;;0.87;0.87;;;21.00;53.70;;;;;;5040547;28;20172;-93
2022/05/26 05:45:01;;;;;;;0.60;0.60;;;21.00;53.70;;;;;;5018389;28;20279;-93
2022/05/26 05:47:30;;;;;;;1.00;0.70;;;21.00;53.80;;;;;;5039322;28;20237;-93
2022/05/26 05:49:55;;;;;;;0.70;0.70;;;21.00;53.70;;;;;;5043321;28;20638;-93
2022/05/26 05:52:23;;;;;;;0.70;0.70;;;21.00;53.70;;;;;;5046890;28;20396;-93
2022/05/26 05:55:13;;;;;;;0.80;0.80;;;21.00;53.80;;;;;;5026470;28;20236;-93
2022/05/26 06:01:07;;;;;;;1.20;0.80;;;21.00;53.80;;;;;;5079295;28;20168;-93
2022/05/26 06:13:47;;;;;;;1.30;0.70;;;21.10;53.90;;;;;;5064508;28;20265;-94
2022/05/26 06:16:13;;;;;;;0.80;0.70;;;21.00;53.80;;;;;;5031716;28;20206;-93
2022/05/26 06:21:38;;;;;;;0.90;0.80;;;21.10;53.90;;;;;;4986200;28;20233;-94
2022/05/26 06:24:04;;;;;;;1.27;1.00;;;21.10;53.90;;;;;;5026301;28;20176;-93
2022/05/26 06:26:36;;;;;;;0.80;0.80;;;21.10;53.90;;;;;;5017445;28;20506;-93
2022/05/26 06:38:35;;;;;;;0.90;0.90;;;21.10;53.80;;;;;;5093825;28;20219;-94
2022/05/26 06:44:03;;;;;;;1.33;1.00;;;21.10;53.80;;;;;;5077061;28;20158;-94
2022/05/26 06:46:29;;;;;;;0.80;0.80;;;21.20;53.80;;;;;;5054821;28;20196;-94
2022/05/26 06:48:55;;;;;;;1.53;0.80;;;21.20;53.80;;;;;;5058344;28;20181;-94
2022/05/26 06:51:24;;;;;;;1.50;1.00;;;21.20;53.90;;;;;;5057361;28;20241;-94
2022/05/26 06:54:12;;;;;;;0.80;0.80;;;21.20;54.00;;;;;;5059580;28;20203;-94
2022/05/26 06:56:38;;;;;;;1.30;0.93;;;21.20;54.10;;;;;;5053280;28;20201;-93
2022/05/26 06:59:03;;;;;;;2.00;1.00;;;21.20;54.20;;;;;;5056149;28;20198;-94
2022/05/26 07:01:30;;;;;;;0.90;0.80;;;21.20;54.20;;;;;;5035936;28;20180;-93
2022/05/26 07:03:57;;;;;;;1.50;1.10;;;21.20;54.30;;;;;;5030172;28;20187;-93
2022/05/26 07:06:26;;;;;;;1.37;0.90;;;21.20;54.30;;;;;;5040343;28;20278;-93
2022/05/26 07:08:51;;;;;;;3.40;0.90;;;21.20;54.30;;;;;;5040060;28;20191;-94
2022/05/26 07:11:18;;;;;;;2.67;1.10;;;21.30;54.30;;;;;;5039966;28;20183;-93
2022/05/26 07:13:50;;;;;;;1.10;1.00;;;21.30;54.30;;;;;;5038761;28;20216;-93
2022/05/26 07:16:16;;;;;;;1.13;1.00;;;21.30;54.30;;;;;;5032701;28;20257;-93
2022/05/26 07:18:42;;;;;;;1.13;1.03;;;21.30;54.40;;;;;;5031265;28;20186;-93
2022/05/26 07:21:10;;;;;;;4.53;1.20;;;21.30;54.40;;;;;;5028750;28;20186;-92
2022/05/26 07:23:36;;;;;;;1.33;1.10;;;21.30;54.40;;;;;;5018792;28;20176;-93
2022/05/26 07:26:06;;;;;;;2.50;1.27;;;21.30;54.40;;;;;;5038843;28;20531;-93
2022/05/26 07:28:33;;;;;;;2.30;1.30;;;21.30;54.40;;;;;;5008022;28;20270;-93
2022/05/26 07:30:59;;;;;;;2.40;1.20;;;21.30;54.40;;;;;;5028976;28;20726;-93
2022/05/26 07:33:24;;;;;;;1.63;1.10;;;21.40;54.30;;;;;;5034202;28;20209;-94
2022/05/26 07:35:50;;;;;;;1.93;1.10;;;21.40;54.20;;;;;;5038287;28;20168;-93
2022/05/26 07:41:16;;;;;;;1.87;1.50;;;21.70;54.00;;;;;;5049854;28;20207;-94
2022/05/26 07:43:55;;;;;;;2.53;1.40;;;21.70;53.90;;;;;;5037296;28;20535;-95
2022/05/26 07:46:24;;;;;;;4.20;1.60;;;21.80;53.60;;;;;;5038018;28;20196;-94
2022/05/26 07:48:52;;;;;;;4.07;1.60;;;22.00;53.40;;;;;;5039625;28;20177;-93
2022/05/26 07:51:21;;;;;;;4.23;1.93;;;22.10;53.30;;;;;;5034171;28;20186;-93
2022/05/26 07:53:48;;;;;;;3.13;1.80;;;22.30;53.00;;;;;;5038418;28;20211;-94
2022/05/26 07:56:14;;;;;;;3.10;1.60;;;22.50;52.60;;;;;;5034068;28;20210;-93
2022/05/26 07:58:42;;;;;;;1.97;1.47;;;22.50;52.50;;;;;;5034767;28;20191;-94
2022/05/26 08:01:09;;;;;;;3.50;1.60;;;22.40;52.50;;;;;;5040282;28;20168;-93
2022/05/26 08:03:37;;;;;;;4.53;1.93;;;22.40;52.60;;;;;;5055541;28;20473;-94
2022/05/26 08:06:03;;;;;;;2.97;1.70;;;22.60;52.40;;;;;;5043465;28;20164;-94
2022/05/26 08:08:33;;;;;;;5.10;1.50;;;22.80;52.10;;;;;;5047707;28;20381;-94
2022/05/26 08:10:58;;;;;;;3.10;1.90;;;22.90;51.70;;;;;;5039489;28;20182;-95
2022/05/26 08:13:24;;;;;;;3.53;1.70;;;23.00;51.60;;;;;;5034969;28;20271;-94
2022/05/26 08:15:52;;;;;;;4.67;1.80;;;22.90;51.70;;;;;;5049186;28;20172;-94
2022/05/26 08:18:18;;;;;;;3.13;1.80;;;22.80;52.10;;;;;;5037696;28;20259;-94
2022/05/26 08:20:44;;;;;;;5.23;1.80;;;22.60;52.30;;;;;;5037445;28;20200;-94
2022/05/26 08:23:10;;;;;;;2.57;1.90;;;22.60;52.70;;;;;;5042193;28;20172;-94
2022/05/26 08:25:37;;;;;;;4.00;2.00;;;22.60;52.70;;;;;;5027202;28;20582;-93
2022/05/26 08:28:03;;;;;;;5.40;2.57;;;22.70;52.80;;;;;;5042763;28;20207;-94
2022/05/26 08:30:29;;;;;;;4.97;2.37;;;22.80;52.70;;;;;;5046008;28;20172;-93
2022/05/26 08:32:55;;;;;;;3.33;2.30;;;22.90;52.40;;;;;;5040669;28;20213;-94
2022/05/26 08:35:33;;;;;;;3.90;2.30;;;23.00;52.10;;;;;;5037399;28;20221;-93
2022/05/26 08:37:58;;;;;;;4.57;2.20;;;23.00;52.10;;;;;;5041882;28;20183;-94
2022/05/26 08:40:38;;;;;;;3.70;2.10;;;23.10;52.10;;;;;;5040140;28;20168;-94
2022/05/26 08:43:15;;;;;;;4.13;2.20;;;23.10;52.10;;;;;;5031639;28;20176;-94
2022/05/26 08:45:47;;;;;;;2.67;2.20;;;23.00;52.20;;;;;;5065755;28;20279;-94
2022/05/26 08:48:45;;;;;;;4.47;2.50;;;22.90;52.70;;;;;;5045179;28;20157;-94
2022/05/26 08:51:19;;;;;;;6.27;2.33;;;22.80;52.90;;;;;;5044934;28;20169;-93
2022/05/26 08:53:47;;;;;;;3.00;2.50;;;22.80;52.90;;;;;;5049233;28;20231;-95
2022/05/26 08:56:27;;;;;;;5.53;2.77;;;22.80;52.90;;;;;;5041817;28;20180;-94
2022/05/26 08:59:01;;;;;;;3.70;2.47;;;22.80;53.10;;;;;;5046243;28;20268;-94
2022/05/26 09:01:31;;;;;;;4.13;2.50;;;22.80;53.10;;;;;;5039860;28;20566;-94
2022/05/26 09:04:04;;;;;;;4.97;2.70;;;22.90;53.20;;;;;;5044094;28;20220;-93
2022/05/26 09:12:55;;;;;;;3.27;2.50;;;22.90;53.00;;;;;;5044330;28;20175;-94
2022/05/26 09:14:53;;;;;;;3.87;2.67;;;23.00;53.30;;;;;;5060322;28;20179;-94
2022/05/26 09:17:19;;;;;;;4.63;2.73;;;23.00;53.40;;;;;;5039196;28;20200;-94
2022/05/26 09:19:44;;;;;;;3.60;2.60;;;23.00;53.50;;;;;;5043637;28;20195;-94
2022/05/26 09:22:40;;;;;;;4.53;2.50;;;23.00;53.60;;;;;;5052821;28;20164;-94
2022/05/26 09:25:32;;;;;;;4.47;2.50;;;23.10;53.50;;;;;;5042139;28;20208;-94
2022/05/26 09:28:01;;;;;;;4.30;2.50;;;23.20;53.20;;;;;;5043842;28;20177;-94
2022/05/26 09:30:45;;;;;;;4.97;2.73;;;23.30;53.20;;;;;;5038121;28;20199;-94
2022/05/26 09:33:31;;;;;;;5.77;2.97;;;23.40;53.20;;;;;;5012707;28;20177;-95
2022/05/26 09:46:14;;;;;;;7.23;2.97;;;23.40;53.80;;;;;;5062507;28;20685;-94
2022/05/26 09:55:14;;;;;;;4.93;3.10;;;23.30;54.20;;;;;;4985917;28;20409;-93
2022/05/26 09:57:40;;;;;;;6.30;3.00;;;23.20;54.40;;;;;;5044101;28;20182;-93
2022/05/26 10:00:40;;;;;;;7.37;3.00;;;23.20;54.40;;;;;;5046209;28;20183;-93
2022/05/26 10:03:43;;;;;;;7.03;2.73;;;23.30;55.10;;;;;;5012285;28;20203;-93
2022/05/26 10:06:17;;;;;;;10.00;3.10;;;23.30;54.90;;;;;;5042081;28;20195;-94
2022/05/26 10:09:01;;;;;;;5.97;2.70;;;23.30;54.50;;;;;;5041468;28;20500;-94
2022/05/26 10:12:04;;;;;;;5.67;2.80;;;23.30;54.60;;;;;;5043908;28;20483;-94
2022/05/26 10:18:54;;;;;;;5.43;2.97;;;23.30;54.80;;;;;;4985076;28;20276;-93
2022/05/26 10:21:52;;;;;;;4.53;2.73;;;23.30;54.80;;;;;;4981541;28;20213;-93
2022/05/26 10:24:30;;;;;;;4.87;2.60;;;23.30;54.90;;;;;;5001446;28;20290;-94
2022/05/26 10:30:31;;;;;;;5.43;2.80;;;23.30;54.80;;;;;;5078792;28;20194;-94
2022/05/26 10:33:19;;;;;;;5.47;2.80;;;23.30;54.70;;;;;;5061822;28;20159;-95
2022/05/26 10:42:43;;;;;;;4.17;2.30;;;23.40;54.60;;;;;;5077051;28;20183;-94
2022/05/26 10:45:32;;;;;;;4.57;2.50;;;23.40;54.70;;;;;;5059792;28;20196;-94
2022/05/26 10:48:34;;;;;;;3.47;2.60;;;23.40;54.80;;;;;;5059429;28;20175;-94
2022/05/26 10:51:23;;;;;;;4.40;2.17;;;23.40;54.70;;;;;;5061493;28;20165;-94
2022/05/26 10:54:19;;;;;;;5.53;2.60;;;23.40;54.70;;;;;;5059091;28;20243;-94
2022/05/26 10:57:13;;;;;;;4.13;2.47;;;23.50;54.80;;;;;;5048493;28;20266;-93
2022/05/26 10:59:54;;;;;;;4.60;2.40;;;23.50;54.70;;;;;;5038077;28;20171;-93
2022/05/26 11:02:39;;;;;;;5.00;2.43;;;23.50;54.70;;;;;;5040056;28;20233;-93
2022/05/26 11:05:14;;;;;;;7.50;2.90;;;23.50;54.80;;;;;;5028469;28;20207;-93
2022/05/26 11:08:02;;;;;;;5.43;2.50;;;23.50;54.80;;;;;;5041218;28;20171;-93
2022/05/26 11:10:40;;;;;;;5.90;2.60;;;23.50;54.90;;;;;;4997443;28;20229;-93
2022/05/26 11:13:13;;;;;;;2.90;2.10;;;23.50;54.90;;;;;;5036505;28;20179;-94
2022/05/26 11:18:52;;;;;;;6.57;2.60;;;23.50;55.10;;;;;;5051586;28;20183;-94
2022/05/26 11:21:23;;;;;;;4.97;2.37;;;23.40;55.10;;;;;;5035869;28;20190;-94
2022/05/26 11:23:49;;;;;;;5.00;2.50;;;23.40;55.20;;;;;;5031972;28;20206;-93
2022/05/26 11:26:18;;;;;;;5.10;2.37;;;23.40;55.20;;;;;;5021503;28;20578;-93
2022/05/26 11:28:56;;;;;;;3.73;2.10;;;23.40;55.20;;;;;;5039246;28;20154;-94
2022/05/26 11:37:28;;;;;;;5.50;2.60;;;23.40;55.00;;;;;;5066176;28;20186;-93
2022/05/26 11:40:44;;;;;;;5.50;2.30;;;23.40;54.90;;;;;;5046834;28;20215;-93
2022/05/26 11:43:10;;;;;;;7.73;2.30;;;23.50;55.00;;;;;;5050188;28;20178;-94
2022/05/26 11:45:49;;;;;;;3.57;2.17;;;23.50;54.90;;;;;;5045747;28;20234;-94
2022/05/26 11:48:30;;;;;;;3.87;2.43;;;23.50;54.90;;;;;;5055409;28;20168;-94
2022/05/26 11:51:00;;;;;;;5.37;2.20;;;23.50;54.90;;;;;;5052545;28;20162;-94
2022/05/26 11:53:32;;;;;;;6.27;2.53;;;23.50;54.90;;;;;;5057703;28;20254;-94
2022/05/26 11:59:34;;;;;;;4.63;2.17;;;23.50;55.00;;;;;;5072401;28;20190;-93
2022/05/26 12:01:59;;;;;;;6.27;2.30;;;23.50;55.00;;;;;;5049583;28;20179;-93
2022/05/26 12:07:49;;;;;;;5.37;2.37;;;23.50;55.10;;;;;;5055845;28;20209;-93
2022/05/26 12:10:25;;;;;;;4.07;2.10;;;23.50;55.10;;;;;;5043905;28;20191;-94
2022/05/26 12:13:19;;;;;;;3.63;2.23;;;23.50;55.20;;;;;;5041807;28;20174;-94
2022/05/26 12:16:10;;;;;;;6.47;2.30;;;23.50;55.20;;;;;;5058772;28;20436;-93
2022/05/26 12:18:48;;;;;;;7.10;2.43;;;23.50;55.00;;;;;;5041156;28;20175;-94
2022/05/26 12:21:29;;;;;;;4.97;2.77;;;23.60;55.00;;;;;;5037533;28;20183;-93
2022/05/26 12:24:37;;;;;;;4.93;2.37;;;23.60;55.10;;;;;;5039697;28;20309;-94
2022/05/26 12:27:21;;;;;;;4.13;2.30;;;23.60;55.00;;;;;;5036667;28;20175;-94
2022/05/26 12:29:46;;;;;;;7.37;2.37;;;23.60;55.00;;;;;;5042070;28;20341;-94
2022/05/26 12:32:31;;;;;;;4.47;2.33;;;23.60;55.00;;;;;;5041984;28;20192;-93
2022/05/26 12:35:03;;;;;;;3.80;2.10;;;23.60;55.00;;;;;;5038801;28;20202;-94
2022/05/26 12:37:56;;;;;;;7.50;2.23;;;23.60;55.00;;;;;;5038177;28;20190;-93
2022/05/26 12:40:44;;;;;;;6.07;2.07;;;23.60;54.90;;;;;;5039902;28;20180;-93
2022/05/26 12:44:03;;;;;;;5.33;2.43;;;23.60;54.80;;;;;;5038783;28;20189;-93
2022/05/26 13:03:39;;;;;;;4.37;2.17;;;23.60;54.60;;;;;;5067700;28;20168;-93
2022/05/26 13:09:25;;;;;;;5.47;2.27;;;23.60;54.50;;;;;;5065578;28;20179;-94
2022/05/26 13:12:03;;;;;;;4.47;1.90;;;23.60;54.40;;;;;;5045701;28;20172;-94
2022/05/26 13:14:49;;;;;;;4.03;1.90;;;23.60;54.40;;;;;;5045531;28;20251;-94
2022/05/26 13:17:36;;;;;;;2.97;2.10;;;23.70;54.40;;;;;;5044603;28;20172;-94
2022/05/26 13:20:04;;;;;;;4.30;2.10;;;23.70;54.30;;;;;;5036119;28;20195;-94
2022/05/26 13:22:36;;;;;;;4.07;2.03;;;23.70;54.30;;;;;;5026324;28;20180;-93
2022/05/26 13:25:02;;;;;;;2.97;2.07;;;23.70;54.30;;;;;;5038311;28;20281;-93
2022/05/26 13:27:46;;;;;;;3.37;2.07;;;23.70;54.30;;;;;;5036388;28;20179;-93
2022/05/26 13:33:08;;;;;;;3.50;2.00;;;23.70;54.30;;;;;;5055532;28;20355;-93
2022/05/26 13:35:45;;;;;;;3.43;2.00;;;23.60;54.30;;;;;;5042584;28;20172;-94
2022/05/26 13:38:35;;;;;;;5.83;2.20;;;23.70;54.30;;;;;;5046733;28;20242;-93
2022/05/26 13:41:03;;;;;;;2.57;1.77;;;23.60;54.30;;;;;;5044929;28;20416;-93
2022/05/26 13:43:32;;;;;;;4.10;2.00;;;23.70;54.30;;;;;;5045772;28;20334;-93
2022/05/26 13:45:59;;;;;;;4.10;2.33;;;23.70;54.30;;;;;;5039553;28;20298;-93
2022/05/26 13:48:39;;;;;;;3.00;1.90;;;23.70;54.30;;;;;;5038754;28;20281;-93
2022/05/26 13:51:05;;;;;;;4.40;1.97;;;23.70;54.30;;;;;;5038461;28;20372;-93
2022/05/26 13:53:32;;;;;;;4.77;2.30;;;23.70;54.30;;;;;;5029059;28;20277;-93
2022/05/26 13:56:05;;;;;;;3.03;1.90;;;23.70;54.30;;;;;;5036853;28;20181;-93
2022/05/26 13:58:32;;;;;;;2.60;1.93;;;23.70;54.30;;;;;;5036180;28;20282;-93
2022/05/26 14:01:01;;;;;;;3.97;2.00;;;23.70;54.30;;;;;;5036316;28;20182;-94
2022/05/26 14:03:31;;;;;;;3.60;1.83;;;23.70;54.30;;;;;;5037163;28;20270;-93
2022/05/26 14:06:33;;;;;;;2.93;1.93;;;23.70;54.30;;;;;;5034755;28;20418;-93
2022/05/26 14:09:20;;;;;;;4.20;2.03;;;23.70;54.30;;;;;;5005961;28;20428;-93
2022/05/26 14:11:45;;;;;;;2.43;1.70;;;23.70;54.40;;;;;;5042333;28;20178;-93
2022/05/26 14:14:29;;;;;;;3.00;2.00;;;23.70;54.40;;;;;;5037663;28;20175;-93
2022/05/26 14:16:56;;;;;;;3.50;2.10;;;23.70;54.40;;;;;;5038532;28;20182;-93
2022/05/26 14:19:29;;;;;;;3.80;1.97;;;23.70;54.50;;;;;;5037590;28;20184;-93
2022/05/26 14:21:56;;;;;;;3.23;2.00;;;23.70;54.50;;;;;;5037100;28;20564;-93
2022/05/26 14:24:41;;;;;;;3.70;1.90;;;23.70;54.50;;;;;;5035062;28;20207;-93
2022/05/26 14:27:51;;;;;;;2.47;1.73;;;23.60;54.50;;;;;;5029251;28;20173;-93
2022/05/26 14:30:31;;;;;;;3.87;1.90;;;23.60;54.50;;;;;;5014549;28;20212;-93
2022/05/26 14:33:16;;;;;;;3.93;1.90;;;23.60;54.50;;;;;;5038070;28;20337;-93
2022/05/26 14:35:42;;;;;;;3.67;2.07;;;23.60;54.50;;;;;;5035483;28;20252;-93
2022/05/26 14:38:08;;;;;;;3.33;1.80;;;23.60;54.50;;;;;;5034777;28;20214;-93
2022/05/26 14:40:34;;;;;;;2.97;2.03;;;23.60;54.50;;;;;;5017303;28;20308;-93
2022/05/26 14:43:00;;;;;;;3.00;1.80;;;23.60;54.50;;;;;;5034534;28;20273;-93
2022/05/26 14:45:26;;;;;;;3.67;1.80;;;23.60;54.50;;;;;;5031122;28;20298;-93
2022/05/26 14:47:51;;;;;;;3.00;1.73;;;23.60;54.50;;;;;;5026028;28;20522;-92
2022/05/26 14:50:18;;;;;;;3.47;1.60;;;23.60;54.50;;;;;;5016548;28;20177;-92
2022/05/26 14:52:47;;;;;;;3.70;2.10;;;23.60;54.50;;;;;;5041133;28;20188;-94
2022/05/26 14:55:29;;;;;;;3.73;1.67;;;23.60;54.50;;;;;;5043506;28;20184;-93
2022/05/26 14:58:22;;;;;;;3.00;1.83;;;23.60;54.50;;;;;;5024450;28;20303;-93
2022/05/26 15:00:49;;;;;;;4.50;1.80;;;23.60;54.50;;;;;;5030615;28;20241;-92
2022/05/26 15:03:16;;;;;;;3.70;2.00;;;23.60;54.50;;;;;;5031245;28;20197;-93
2022/05/26 15:05:43;;;;;;;3.00;1.73;;;23.60;54.50;;;;;;5037378;28;20303;-93
2022/05/26 15:08:31;;;;;;;5.37;2.20;;;23.60;54.40;;;;;;5043426;28;20174;-93
2022/05/26 15:10:56;;;;;;;2.87;1.97;;;23.60;54.50;;;;;;5059846;28;20481;-93
2022/05/26 15:13:25;;;;;;;2.77;1.80;;;23.60;54.40;;;;;;5041100;28;20419;-93
2022/05/26 15:15:51;;;;;;;3.60;2.13;;;23.60;54.40;;;;;;5040928;28;20182;-93
2022/05/26 15:18:16;;;;;;;2.83;1.80;;;23.60;54.40;;;;;;5041294;28;20379;-93
2022/05/26 15:20:42;;;;;;;3.00;1.87;;;23.60;54.30;;;;;;5038027;28;20237;-93
2022/05/26 15:23:08;;;;;;;3.63;1.90;;;23.60;54.40;;;;;;5039099;28;20175;-94
2022/05/26 15:26:07;;;;;;;3.13;1.77;;;23.60;54.30;;;;;;5041448;28;20218;-93
2022/05/26 15:28:21;;;;;;;2.93;1.67;;;23.60;54.30;;;;;;5051886;28;20243;-93
2022/05/26 15:30:49;;;;;;;3.23;1.80;;;23.60;54.30;;;;;;5041162;28;20170;-93
2022/05/26 15:33:14;;;;;;;3.33;1.70;;;23.60;54.30;;;;;;5043137;28;20564;-92
2022/05/26 15:35:59;;;;;;;3.23;1.60;;;23.60;54.30;;;;;;5034753;28;20246;-93
2022/05/26 15:38:29;;;;;;;3.23;1.97;;;23.60;54.30;;;;;;5031947;28;20207;-93
2022/05/26 15:40:54;;;;;;;2.33;1.77;;;23.60;54.30;;;;;;5037559;28;20175;-93
2022/05/26 15:43:22;;;;;;;3.70;1.80;;;23.60;54.30;;;;;;5041580;28;20227;-93
2022/05/26 15:45:48;;;;;;;2.63;1.53;;;23.60;54.30;;;;;;5043410;28;20238;-93
2022/05/26 15:48:15;;;;;;;3.03;1.63;;;23.60;54.30;;;;;;5033408;28;20201;-93
2022/05/26 15:50:40;;;;;;;3.93;1.83;;;23.60;54.30;;;;;;5040513;28;20174;-93
2022/05/26 15:53:06;;;;;;;3.20;1.83;;;23.60;54.30;;;;;;5028221;28;20425;-93
2022/05/26 15:55:32;;;;;;;3.43;1.80;;;23.60;54.30;;;;;;5034418;28;20213;-93
2022/05/26 15:58:02;;;;;;;3.17;1.93;;;23.60;54.30;;;;;;5023782;28;20427;-93
2022/05/26 16:07:14;;;;;;;3.43;1.90;;;23.60;54.30;;;;;;5039049;28;20181;-94
2022/05/26 16:09:40;;;;;;;4.23;2.17;;;23.60;54.40;;;;;;5035575;28;20175;-93
2022/05/26 16:12:06;;;;;;;4.63;1.87;;;23.60;54.40;;;;;;5024428;28;20177;-94
2022/05/26 16:14:31;;;;;;;2.77;1.90;;;23.60;54.40;;;;;;5034263;28;20170;-94